sensor_id;sensor_type;location;lat;lon;timestamp;P1;durP1;ratioP1;P2;durP2;ratioP2
57535;SDS011;43361;49.790;8.960;2023-03-23T00:02:07;6.75;;;3.00;;
57535;SDS011;43361;49.790;8.960;2023-03-23T00:12:07;5.80;;;2.70;;
57535;SDS011;43361;49.790;8.960;2023-03-23T00:22:09;4.22;;;2.63;;
57535;SDS011;43361;49.790;8.960;2023-03-23T00:32:10;6.68;;;3.08;;
57535;SDS011;43361;49.790;8.960;2023-03-23T00:42:14;4.75;;;2.50;;
57535;SDS011;43361;49.790;8.960;2023-03-23T00:52:16;7.80;;;3.05;;
57535;SDS011;43361;49.790;8.960;2023-03-23T01:02:18;5.32;;;2.83;;
57535;SDS011;43361;49.790;8.960;2023-03-23T01:12:19;5.25;;;2.78;;
57535;SDS011;43361;49.790;8.960;2023-03-23T01:22:21;4.55;;;2.33;;
57535;SDS011;43361;49.790;8.960;2023-03-23T01:32:21;5.70;;;2.55;;
57535;SDS011;43361;49.790;8.960;2023-03-23T01:42:24;4.85;;;2.10;;
57535;SDS011;43361;49.790;8.960;2023-03-23T01:52:25;3.63;;;2.13;;
57535;SDS011;43361;49.790;8.960;2023-03-23T02:02:28;3.70;;;2.00;;
57535;SDS011;43361;49.790;8.960;2023-03-23T02:12:28;3.92;;;1.85;;
57535;SDS011;43361;49.790;8.960;2023-03-23T02:22:44;4.40;;;2.35;;
57535;SDS011;43361;49.790;8.960;2023-03-23T02:33:06;3.65;;;1.95;;
57535;SDS011;43361;49.790;8.960;2023-03-23T02:53:10;4.30;;;2.13;;
57535;SDS011;43361;49.790;8.960;2023-03-23T03:03:13;4.13;;;1.95;;
57535;SDS011;43361;49.790;8.960;2023-03-23T03:13:19;3.35;;;1.70;;
57535;SDS011;43361;49.790;8.960;2023-03-23T03:23:21;2.10;;;1.40;;
57535;SDS011;43361;49.790;8.960;2023-03-23T03:33:24;4.38;;;2.03;;
57535;SDS011;43361;49.790;8.960;2023-03-23T03:43:27;2.75;;;1.45;;
57535;SDS011;43361;49.790;8.960;2023-03-23T04:03:29;3.57;;;1.73;;
57535;SDS011;43361;49.790;8.960;2023-03-23T04:13:30;2.95;;;1.50;;
57535;SDS011;43361;49.790;8.960;2023-03-23T04:33:34;2.78;;;1.33;;
57535;SDS011;43361;49.790;8.960;2023-03-23T04:43:37;2.75;;;1.30;;
57535;SDS011;43361;49.790;8.960;2023-03-23T04:53:43;3.72;;;1.80;;
57535;SDS011;43361;49.790;8.960;2023-03-23T05:03:43;2.70;;;1.17;;
57535;SDS011;43361;49.790;8.960;2023-03-23T05:23:45;2.67;;;1.40;;
57535;SDS011;43361;49.790;8.960;2023-03-23T05:33:47;2.75;;;1.40;;
57535;SDS011;43361;49.790;8.960;2023-03-23T05:53:49;2.30;;;1.13;;
57535;SDS011;43361;49.790;8.960;2023-03-23T06:03:49;2.00;;;1.08;;
57535;SDS011;43361;49.790;8.960;2023-03-23T06:13:55;6.50;;;1.42;;
57535;SDS011;43361;49.790;8.960;2023-03-23T06:23:55;2.63;;;1.27;;
57535;SDS011;43361;49.790;8.960;2023-03-23T06:43:58;15.23;;;3.20;;
57535;SDS011;43361;49.790;8.960;2023-03-23T06:53:58;11.15;;;3.35;;
57535;SDS011;43361;49.790;8.960;2023-03-23T07:04:00;12.70;;;3.97;;
57535;SDS011;43361;49.790;8.960;2023-03-23T07:14:00;16.40;;;4.07;;
57535;SDS011;43361;49.790;8.960;2023-03-23T07:24:03;9.73;;;3.38;;
57535;SDS011;43361;49.790;8.960;2023-03-23T07:34:03;12.85;;;4.43;;
57535;SDS011;43361;49.790;8.960;2023-03-23T07:54:05;15.35;;;4.30;;
57535;SDS011;43361;49.790;8.960;2023-03-23T08:04:07;17.05;;;5.32;;
57535;SDS011;43361;49.790;8.960;2023-03-23T08:14:09;15.18;;;4.72;;
57535;SDS011;43361;49.790;8.960;2023-03-23T08:24:10;21.20;;;5.80;;
57535;SDS011;43361;49.790;8.960;2023-03-23T08:34:12;20.98;;;5.10;;
57535;SDS011;43361;49.790;8.960;2023-03-23T08:44:13;19.65;;;5.53;;
57535;SDS011;43361;49.790;8.960;2023-03-23T08:54:15;13.77;;;5.20;;
57535;SDS011;43361;49.790;8.960;2023-03-23T09:04:15;15.20;;;5.03;;
57535;SDS011;43361;49.790;8.960;2023-03-23T09:14:18;16.15;;;5.18;;
57535;SDS011;43361;49.790;8.960;2023-03-23T09:24:18;17.45;;;5.75;;
57535;SDS011;43361;49.790;8.960;2023-03-23T09:34:20;15.57;;;4.80;;
57535;SDS011;43361;49.790;8.960;2023-03-23T09:44:22;14.63;;;5.43;;
57535;SDS011;43361;49.790;8.960;2023-03-23T09:54:27;12.82;;;4.70;;
57535;SDS011;43361;49.790;8.960;2023-03-23T10:04:31;14.18;;;5.32;;
57535;SDS011;43361;49.790;8.960;2023-03-23T10:14:41;14.02;;;5.03;;
57535;SDS011;43361;49.790;8.960;2023-03-23T10:24:46;17.13;;;4.78;;
57535;SDS011;43361;49.790;8.960;2023-03-23T10:34:50;11.32;;;4.22;;
57535;SDS011;43361;49.790;8.960;2023-03-23T10:44:53;14.57;;;5.20;;
57535;SDS011;43361;49.790;8.960;2023-03-23T11:04:56;12.50;;;4.43;;
57535;SDS011;43361;49.790;8.960;2023-03-23T11:15:03;20.30;;;5.72;;
57535;SDS011;43361;49.790;8.960;2023-03-23T11:25:05;28.08;;;10.38;;
57535;SDS011;43361;49.790;8.960;2023-03-23T11:35:06;15.55;;;5.28;;
57535;SDS011;43361;49.790;8.960;2023-03-23T11:45:18;14.68;;;5.45;;
57535;SDS011;43361;49.790;8.960;2023-03-23T11:55:20;16.52;;;5.35;;
57535;SDS011;43361;49.790;8.960;2023-03-23T12:05:30;12.77;;;4.97;;
57535;SDS011;43361;49.790;8.960;2023-03-23T12:15:33;14.15;;;4.53;;
57535;SDS011;43361;49.790;8.960;2023-03-23T12:25:49;11.48;;;4.45;;
57535;SDS011;43361;49.790;8.960;2023-03-23T12:35:59;10.80;;;3.92;;
57535;SDS011;43361;49.790;8.960;2023-03-23T12:46:07;9.48;;;4.10;;
57535;SDS011;43361;49.790;8.960;2023-03-23T12:56:11;8.68;;;4.15;;
57535;SDS011;43361;49.790;8.960;2023-03-23T13:06:18;10.90;;;4.18;;
57535;SDS011;43361;49.790;8.960;2023-03-23T13:16:22;11.23;;;4.10;;
57535;SDS011;43361;49.790;8.960;2023-03-23T13:26:26;9.77;;;3.55;;
57535;SDS011;43361;49.790;8.960;2023-03-23T13:36:28;8.88;;;3.50;;
57535;SDS011;43361;49.790;8.960;2023-03-23T13:46:30;7.28;;;3.10;;
57535;SDS011;43361;49.790;8.960;2023-03-23T13:56:34;6.95;;;2.92;;
57535;SDS011;43361;49.790;8.960;2023-03-23T14:06:36;10.45;;;3.17;;
57535;SDS011;43361;49.790;8.960;2023-03-23T14:16:38;6.97;;;3.15;;
57535;SDS011;43361;49.790;8.960;2023-03-23T14:26:40;8.43;;;3.15;;
57535;SDS011;43361;49.790;8.960;2023-03-23T14:36:42;4.78;;;2.67;;
57535;SDS011;43361;49.790;8.960;2023-03-23T14:46:44;7.45;;;2.83;;
57535;SDS011;43361;49.790;8.960;2023-03-23T14:56:45;6.70;;;2.58;;
57535;SDS011;43361;49.790;8.960;2023-03-23T15:06:51;5.03;;;2.42;;
57535;SDS011;43361;49.790;8.960;2023-03-23T15:16:54;5.78;;;2.72;;
57535;SDS011;43361;49.790;8.960;2023-03-23T15:27:04;8.10;;;2.63;;
57535;SDS011;43361;49.790;8.960;2023-03-23T15:37:16;6.35;;;2.55;;
57535;SDS011;43361;49.790;8.960;2023-03-23T15:47:19;4.82;;;2.25;;
57535;SDS011;43361;49.790;8.960;2023-03-23T15:57:20;5.68;;;2.00;;
57535;SDS011;43361;49.790;8.960;2023-03-23T16:17:22;8.70;;;2.47;;
57535;SDS011;43361;49.790;8.960;2023-03-23T16:27:23;7.68;;;2.33;;
57535;SDS011;43361;49.790;8.960;2023-03-23T16:47:25;10.07;;;2.70;;
57535;SDS011;43361;49.790;8.960;2023-03-23T16:57:25;8.88;;;2.15;;
57535;SDS011;43361;49.790;8.960;2023-03-23T17:07:27;27.65;;;4.90;;
57535;SDS011;43361;49.790;8.960;2023-03-23T17:17:28;12.55;;;4.15;;
57535;SDS011;43361;49.790;8.960;2023-03-23T17:27:30;13.15;;;3.38;;
57535;SDS011;43361;49.790;8.960;2023-03-23T17:37:30;8.35;;;3.65;;
57535;SDS011;43361;49.790;8.960;2023-03-23T17:47:32;14.38;;;3.30;;
57535;SDS011;43361;49.790;8.960;2023-03-23T17:57:33;5.45;;;2.70;;
57535;SDS011;43361;49.790;8.960;2023-03-23T18:07:35;9.45;;;3.25;;
57535;SDS011;43361;49.790;8.960;2023-03-23T18:17:36;5.68;;;2.60;;
57535;SDS011;43361;49.790;8.960;2023-03-23T18:27:37;16.10;;;3.25;;
57535;SDS011;43361;49.790;8.960;2023-03-23T18:37:38;6.30;;;2.72;;
57535;SDS011;43361;49.790;8.960;2023-03-23T18:57:40;6.97;;;3.00;;
57535;SDS011;43361;49.790;8.960;2023-03-23T19:07:40;8.60;;;2.85;;
57535;SDS011;43361;49.790;8.960;2023-03-23T19:17:44;6.72;;;2.78;;
57535;SDS011;43361;49.790;8.960;2023-03-23T19:27:44;7.63;;;2.90;;
57535;SDS011;43361;49.790;8.960;2023-03-23T19:37:47;6.38;;;2.80;;
57535;SDS011;43361;49.790;8.960;2023-03-23T19:47:48;6.82;;;2.65;;
57535;SDS011;43361;49.790;8.960;2023-03-23T20:07:51;6.38;;;2.55;;
57535;SDS011;43361;49.790;8.960;2023-03-23T20:17:52;11.13;;;2.63;;
57535;SDS011;43361;49.790;8.960;2023-03-23T20:27:53;6.30;;;2.97;;
57535;SDS011;43361;49.790;8.960;2023-03-23T20:37:54;5.10;;;2.50;;
57535;SDS011;43361;49.790;8.960;2023-03-23T20:57:56;7.22;;;2.45;;
57535;SDS011;43361;49.790;8.960;2023-03-23T21:07:56;4.43;;;2.13;;
57535;SDS011;43361;49.790;8.960;2023-03-23T21:17:58;7.40;;;2.42;;
57535;SDS011;43361;49.790;8.960;2023-03-23T21:27:59;8.30;;;2.15;;
57535;SDS011;43361;49.790;8.960;2023-03-23T21:38:01;5.00;;;2.22;;
57535;SDS011;43361;49.790;8.960;2023-03-23T21:48:04;5.55;;;2.30;;
57535;SDS011;43361;49.790;8.960;2023-03-23T21:58:06;4.60;;;2.10;;
57535;SDS011;43361;49.790;8.960;2023-03-23T22:08:08;7.78;;;1.95;;
57535;SDS011;43361;49.790;8.960;2023-03-23T22:18:10;5.57;;;2.00;;
57535;SDS011;43361;49.790;8.960;2023-03-23T22:28:10;4.03;;;1.90;;
57535;SDS011;43361;49.790;8.960;2023-03-23T22:38:12;2.85;;;1.45;;
57535;SDS011;43361;49.790;8.960;2023-03-23T22:48:13;1.98;;;1.27;;
57535;SDS011;43361;49.790;8.960;2023-03-23T22:58:15;3.78;;;1.42;;
57535;SDS011;43361;49.790;8.960;2023-03-23T23:08:15;4.95;;;1.30;;
57535;SDS011;43361;49.790;8.960;2023-03-23T23:18:17;3.33;;;1.42;;
57535;SDS011;43361;49.790;8.960;2023-03-23T23:28:19;3.10;;;1.17;;
57535;SDS011;43361;49.790;8.960;2023-03-23T23:38:21;2.92;;;1.30;;
57535;SDS011;43361;49.790;8.960;2023-03-23T23:48:22;1.85;;;1.05;;
57535;SDS011;43361;49.790;8.960;2023-03-23T23:58:23;2.15;;;1.20;;
